KDET/DET METAR and TAF weather

Enter ICAO airport designator
Station Type Date Time Source
KDET METAR 2019/06/26 21:53 UTC NOAA

KDET 262153Z 26013G18KT 10SM CLR 31/12 A3004 RMK AO2 SLP167 T03060122


Station Type Date Time Source
KDET Decoded METAR 2019/06/26 21:53 UTC NOAA

DETROIT CITY AIRPORT, MI, United States (KDET) 42-25N 083-01W 190M
Jun 26, 2019 - 05:53 PM EDT / 2019.06.26 2153 UTC
Wind: from the W (260 degrees) at 15 MPH (13 KT) gusting to 21 MPH (18 KT):0
Visibility: 10 mile(s):0
Sky conditions: clear
Temperature: 87.1 F (30.6 C)
Dew Point: 54.0 F (12.2 C)
Relative Humidity: 32%
Pressure (altimeter): 30.04 in. Hg (1017 hPa)
ob: KDET 262153Z 26013G18KT 10SM CLR 31/12 A3004 RMK AO2 SLP167 T03060122
cycle: 22

Station Type Date Time Source
KDET TAF 2019/06/26 21:09 UTC NOAA

TAF
AMD KDET 262106Z 2621/2718 26012KT P6SM FEW070 SCT250
FM270200 VRB04KT P6SM SCT250
FM271400 17005KT P6SM FEW250

Example: see airport list